Time;durP1;ratioP1;P1;durP2;ratioP2;P2;SDS_P1;SDS_P2;PMS_P1;PMS_P2;Temp;Humidity;BMP_temperature;BMP_pressure;BME280_temperature;BME280_humidity;BME280_pressure;Samples;Min_cycle;Max_cycle;Signal;HPM_P1;HPM_P2
2022/08/29 00:00:19;;;;;;;8.60;4.05;;;;;;;15.65;100.00;100722.61;1750676;80;21022;-82
2022/08/29 00:02:51;;;;;;;8.38;4.37;;;;;;;15.62;100.00;100716.55;1749344;80;20999;-82
2022/08/29 00:05:24;;;;;;;10.18;4.47;;;;;;;15.64;100.00;100723.55;1755699;80;21038;-82
2022/08/29 00:07:52;;;;;;;7.55;4.10;;;;;;;15.65;100.00;100724.78;1756388;80;21041;-81
2022/08/29 00:10:20;;;;;;;6.80;3.87;;;;;;;15.64;100.00;100724.41;1756338;80;21031;-82
2022/08/29 00:12:47;;;;;;;8.55;4.50;;;;;;;15.65;100.00;100723.92;1758212;80;21026;-81
2022/08/29 00:15:15;;;;;;;7.92;4.40;;;;;;;15.65;100.00;100722.13;1764957;80;21127;-81
2022/08/29 00:17:43;;;;;;;6.00;4.20;;;;;;;15.67;100.00;100726.03;1750483;80;21040;-81
2022/08/29 00:20:14;;;;;;;6.75;3.95;;;;;;;15.65;100.00;100718.17;1750253;80;21023;-81
2022/08/29 00:22:41;;;;;;;9.53;4.22;;;;;;;15.67;100.00;100727.35;1754103;80;21103;-81
2022/08/29 00:25:11;;;;;;;10.90;4.28;;;;;;;15.67;100.00;100720.27;1751330;80;21100;-81
2022/08/29 00:27:38;;;;;;;8.45;4.65;;;;;;;15.67;100.00;100720.27;1768544;80;21871;-82
2022/08/29 00:30:08;;;;;;;9.78;4.08;;;;;;;15.68;100.00;100723.32;1744252;80;21519;-81
2022/08/29 00:32:36;;;;;;;8.57;4.17;;;;;;;15.67;100.00;100716.78;1747569;80;21033;-81
2022/08/29 00:35:08;;;;;;;11.53;4.33;;;;;;;15.67;100.00;100716.78;1748772;80;21026;-82
2022/08/29 00:37:35;;;;;;;10.20;4.35;;;;;;;15.73;100.00;100727.90;1746849;80;21309;-82
2022/08/29 00:40:06;;;;;;;6.20;3.75;;;;;;;15.72;100.00;100727.53;1775168;80;21469;-81
2022/08/29 00:42:34;;;;;;;10.28;4.35;;;;;;;15.72;100.00;100727.53;1770760;80;21040;-82
2022/08/29 00:45:06;;;;;;;9.58;4.20;;;;;;;15.72;100.00;100734.61;1758859;80;21040;-82
2022/08/29 00:47:37;;;;;;;9.80;4.33;;;;;;;15.72;100.00;100734.12;1761856;80;21079;-81
2022/08/29 00:50:08;;;;;;;9.68;4.37;;;;;;;15.74;100.00;100733.59;1748423;80;21047;-81
2022/08/29 00:52:43;;;;;;;7.40;4.10;;;;;;;15.75;100.00;100730.47;1753255;80;21613;-82
2022/08/29 00:55:15;;;;;;;9.20;4.58;;;;;;;15.71;100.00;100725.83;1751528;80;21334;-81
2022/08/29 00:57:46;;;;;;;11.08;4.05;;;;;;;15.67;100.00;100730.00;1768946;80;21476;-81
2022/08/29 01:00:16;;;;;;;10.65;4.55;;;;;;;15.70;100.00;100728.06;1746872;80;21548;-82
2022/08/29 01:02:43;;;;;;;10.45;4.50;;;;;;;15.67;100.00;100734.80;1744444;80;20995;-81
2022/08/29 01:05:16;;;;;;;7.55;4.20;;;;;;;15.65;100.00;100732.70;1744349;80;21184;-81
2022/08/29 01:07:43;;;;;;;9.20;4.05;;;;;;;15.61;100.00;100740.42;1751361;80;21120;-81
2022/08/29 01:12:14;;;;;;;7.75;4.05;;;;;;;15.61;100.00;100738.63;1761008;80;21022;-81
2022/08/29 01:12:40;;;;;;;10.53;4.15;;;;;;;15.60;100.00;100732.97;1752480;80;21089;-81
2022/08/29 01:15:12;;;;;;;7.65;4.25;;;;;;;15.62;100.00;100744.28;1755508;80;21028;-81
2022/08/29 01:17:46;;;;;;;8.30;4.30;;;;;;;15.63;100.00;100750.45;1744294;80;21082;-81
2022/08/29 01:20:18;;;;;;;7.97;4.20;;;;;;;15.65;100.00;100746.39;1765269;80;21031;-82
2022/08/29 01:22:54;;;;;;;9.23;4.53;;;;;;;15.65;100.00;100746.39;1731023;80;21501;-82
2022/08/29 01:25:25;;;;;;;8.80;4.17;;;;;;;15.62;100.00;100745.61;1743802;80;21019;-82
2022/08/29 01:27:58;;;;;;;8.85;4.37;;;;;;;15.59;100.00;100739.64;1770975;80;21026;-82
2022/08/29 01:30:25;;;;;;;8.75;3.92;;;;;;;15.58;100.00;100747.19;1742981;80;21315;-82
2022/08/29 01:32:52;;;;;;;9.20;4.30;;;;;;;15.59;100.00;100750.20;1760626;80;21053;-82
2022/08/29 01:35:19;;;;;;;6.87;4.15;;;;;;;15.57;100.00;100748.98;1746848;80;21037;-82
2022/08/29 01:37:46;;;;;;;7.00;3.92;;;;;;;15.57;100.00;100748.98;1736812;80;21011;-82
2022/08/29 01:40:13;;;;;;;7.08;4.05;;;;;;;15.57;100.00;100749.42;1744558;80;21023;-82
2022/08/29 01:42:40;;;;;;;7.45;4.20;;;;;;;15.57;100.00;100747.66;1738029;80;21087;-82
2022/08/29 01:45:09;;;;;;;9.38;4.53;;;;;;;15.53;100.00;100754.02;1755143;80;21055;-82
2022/08/29 01:47:37;;;;;;;7.67;4.15;;;;;;;15.54;100.00;100756.20;1769820;81;21425;-81
2022/08/29 01:50:10;;;;;;;7.20;4.08;;;;;;;15.53;100.00;100754.50;1744315;80;22003;-82
2022/08/29 01:52:37;;;;;;;9.40;4.65;;;;;;;15.52;100.00;100754.09;1739303;81;21099;-82
2022/08/29 01:55:05;;;;;;;11.88;4.80;;;;;;;15.50;100.00;100748.05;1739179;81;21939;-82
2022/08/29 01:57:32;;;;;;;10.45;4.62;;;;;;;15.50;100.00;100751.55;1739110;81;21031;-82
2022/08/29 02:00:00;;;;;;;9.18;4.20;;;;;;;15.50;100.00;100751.55;1761949;81;21023;-82
2022/08/29 02:02:28;;;;;;;13.13;4.33;;;;;;;15.46;100.00;100757.05;1719597;82;21504;-82
2022/08/29 02:04:57;;;;;;;9.30;4.80;;;;;;;15.42;100.00;100757.69;1719575;81;21073;-82
2022/08/29 02:07:25;;;;;;;13.68;4.25;;;;;;;15.40;100.00;100756.91;1743545;81;22120;-82
2022/08/29 02:09:52;;;;;;;9.03;4.85;;;;;;;15.38;100.00;100759.64;1762238;81;21008;-82
2022/08/29 02:12:20;;;;;;;15.68;5.20;;;;;;;15.38;100.00;100760.12;1745918;80;21444;-81
2022/08/29 02:14:49;;;;;;;11.68;4.87;;;;;;;15.36;100.00;100768.11;1745766;80;21010;-82
2022/08/29 02:17:16;;;;;;;7.30;4.30;;;;;;;15.35;100.00;100766.84;1739449;80;20976;-82
2022/08/29 02:19:44;;;;;;;12.03;5.00;;;;;;;15.36;100.00;100766.78;1758476;81;21099;-82
2022/08/29 02:22:12;;;;;;;12.85;5.35;;;;;;;15.36;100.00;100754.90;1746880;80;21074;-82
2022/08/29 02:24:41;;;;;;;6.60;4.45;;;;;;;15.36;100.00;100754.90;1756182;81;21011;-82
2022/08/29 02:27:11;;;;;;;8.08;4.75;;;;;;;15.32;100.00;100755.97;1767124;80;21015;-82
2022/08/29 02:29:38;;;;;;;14.63;4.85;;;;;;;15.28;100.00;100755.75;1754572;81;21027;-82
2022/08/29 02:32:10;;;;;;;9.25;5.03;;;;;;;15.27;100.00;100758.02;1769355;80;21123;-82
2022/08/29 02:34:37;;;;;;;10.05;5.12;;;;;;;15.25;100.00;100757.23;1743590;81;20931;-82
2022/08/29 02:37:05;;;;;;;10.18;5.22;;;;;;;15.18;100.00;100752.71;1739731;81;21000;-82
2022/08/29 02:39:33;;;;;;;10.28;5.53;;;;;;;15.14;100.00;100753.81;1739203;81;21031;-82
2022/08/29 02:42:01;;;;;;;8.45;4.78;;;;;;;15.16;100.00;100756.39;1739297;81;21056;-82
2022/08/29 02:44:28;;;;;;;9.40;6.08;;;;;;;15.15;100.00;100753.34;1739474;81;21167;-82
2022/08/29 02:46:55;;;;;;;10.80;5.62;;;;;;;15.16;100.00;100755.92;1756554;80;21019;-82
2022/08/29 02:49:22;;;;;;;13.43;5.42;;;;;;;15.17;100.00;100756.30;1754011;80;21003;-82
2022/08/29 02:51:50;;;;;;;8.08;4.80;;;;;;;15.18;100.00;100757.99;1731764;82;21054;-82
2022/08/29 02:54:16;;;;;;;11.12;5.37;;;;;;;15.18;100.00;100763.27;1740797;80;21039;-82
2022/08/29 02:56:44;;;;;;;9.45;5.08;;;;;;;15.17;100.00;100760.25;1756343;80;21118;-82
2022/08/29 02:59:12;;;;;;;8.50;4.95;;;;;;;15.17;100.00;100760.25;1744341;80;21055;-82
2022/08/29 03:01:40;;;;;;;11.70;4.72;;;;;;;15.11;100.00;100751.80;1756217;80;21031;-82
2022/08/29 03:04:06;;;;;;;15.48;5.35;;;;;;;15.11;100.00;100751.80;1744343;80;21019;-82
2022/08/29 03:06:34;;;;;;;8.88;5.12;;;;;;;15.11;100.00;100753.97;1744502;80;21199;-82
2022/08/29 03:09:01;;;;;;;7.70;4.83;;;;;;;15.11;100.00;100758.41;1744219;80;21303;-82
2022/08/29 03:11:28;;;;;;;7.37;5.00;;;;;;;15.11;100.00;100757.93;1744520;80;20980;-82
2022/08/29 03:13:55;;;;;;;7.87;4.87;;;;;;;15.11;100.00;100758.41;1750348;80;22267;-81
2022/08/29 03:16:22;;;;;;;11.03;5.20;;;;;;;14.98;100.00;100754.19;1767606;80;21045;-82
2022/08/29 03:18:49;;;;;;;9.05;5.12;;;;;;;14.98;100.00;100754.19;1746219;80;21086;-82
2022/08/29 03:21:20;;;;;;;7.20;5.30;;;;;;;14.97;100.00;100756.45;1768869;80;21256;-82
2022/08/29 03:23:48;;;;;;;11.43;5.78;;;;;;;14.97;100.00;100756.45;1746472;80;21090;-81
2022/08/29 03:26:15;;;;;;;8.83;5.10;;;;;;;14.96;100.00;100760.00;1744408;80;21489;-82
2022/08/29 03:28:43;;;;;;;10.03;4.97;;;;;;;14.93;100.00;100759.69;1756506;80;21045;-81
2022/08/29 03:31:10;;;;;;;9.30;5.25;;;;;;;14.88;100.00;100759.08;1744700;80;21265;-82
2022/08/29 03:33:38;;;;;;;7.60;4.80;;;;;;;14.88;100.00;100763.48;1744450;80;21103;-81
2022/08/29 03:36:07;;;;;;;11.33;5.00;;;;;;;14.88;100.00;100759.08;1744572;80;21034;-81
2022/08/29 03:38:37;;;;;;;12.60;5.80;;;;;;;14.87;100.00;100760.47;1744569;80;20980;-81
2022/08/29 03:41:06;;;;;;;9.75;5.60;;;;;;;14.87;100.00;100764.42;1767629;80;21481;-82
2022/08/29 03:43:33;;;;;;;9.33;5.35;;;;;;;14.89;100.00;100763.89;1754680;80;21061;-81
2022/08/29 03:46:00;;;;;;;9.13;4.75;;;;;;;14.90;100.00;100765.59;1770018;79;21095;-82
2022/08/29 03:48:27;;;;;;;8.15;4.97;;;;;;;14.86;100.00;100766.22;1773263;80;21045;-81
2022/08/29 03:50:54;;;;;;;10.65;5.22;;;;;;;14.85;100.00;100768.91;1739250;80;21056;-81
2022/08/29 03:53:21;;;;;;;8.50;4.60;;;;;;;14.82;100.00;100767.75;1748537;80;21023;-81
2022/08/29 03:55:48;;;;;;;7.65;5.10;;;;;;;14.82;100.00;100780.94;1751999;80;21091;-82
2022/08/29 03:58:15;;;;;;;11.28;5.37;;;;;;;14.79;100.00;100780.63;1736759;80;21916;-82
2022/08/29 04:00:45;;;;;;;7.83;4.50;;;;;;;14.80;100.00;100788.07;1749638;80;22051;-82
2022/08/29 04:03:12;;;;;;;11.00;5.15;;;;;;;14.76;100.00;100792.65;1752607;80;21551;-81
2022/08/29 04:05:39;;;;;;;9.55;5.10;;;;;;;14.71;100.00;100789.37;1771031;80;21517;-81
2022/08/29 04:08:07;;;;;;;8.13;4.62;;;;;;;14.75;100.00;100790.95;1737336;80;20989;-82
2022/08/29 04:10:37;;;;;;;10.68;5.33;;;;;;;14.79;100.00;100792.97;1749773;80;21123;-81
2022/08/29 04:13:06;;;;;;;8.08;5.08;;;;;;;14.71;100.00;100797.28;1749681;80;25258;-82
2022/08/29 04:15:36;;;;;;;10.48;4.97;;;;;;;14.67;100.00;100795.73;1747449;80;21064;-81
2022/08/29 04:18:09;;;;;;;9.15;5.00;;;;;;;14.63;100.00;100800.75;1742375;80;20927;-81
2022/08/29 04:20:40;;;;;;;7.37;5.28;;;;;;;14.58;100.00;100802.78;1749733;80;20995;-81
2022/08/29 04:23:07;;;;;;;8.58;5.03;;;;;;;14.51;100.00;100806.12;1738666;80;21075;-81
2022/08/29 04:25:35;;;;;;;8.40;4.70;;;;;;;14.45;100.00;100805.09;1747672;80;21045;-81
2022/08/29 04:28:07;;;;;;;9.15;5.03;;;;;;;14.45;100.00;100807.27;1749958;80;20995;-81
2022/08/29 04:30:35;;;;;;;7.42;5.17;;;;;;;14.47;100.00;100804.09;1749723;80;20995;-81
2022/08/29 04:33:03;;;;;;;11.43;4.90;;;;;;;14.47;100.00;100812.48;1749988;80;21424;-81
2022/08/29 04:35:30;;;;;;;7.47;4.83;;;;;;;14.45;100.00;100807.73;1748152;80;21090;-81
2022/08/29 04:37:57;;;;;;;9.60;4.75;;;;;;;14.41;100.00;100811.42;1730584;80;21518;-81
2022/08/29 04:40:24;;;;;;;7.08;4.55;;;;;;;14.37;100.00;100811.19;1746996;80;21021;-81
2022/08/29 04:42:51;;;;;;;10.63;5.40;;;;;;;14.35;100.00;100809.08;1754224;80;21053;-81
2022/08/29 04:45:22;;;;;;;7.22;4.67;;;;;;;14.33;100.00;100810.91;1753960;80;20986;-81
2022/08/29 04:47:49;;;;;;;11.50;5.08;;;;;;;14.36;100.00;100806.84;1767985;80;21155;-81
2022/08/29 04:50:21;;;;;;;9.58;4.50;;;;;;;14.37;100.00;100804.59;1739397;81;20996;-81
2022/08/29 04:52:51;;;;;;;8.98;4.35;;;;;;;14.37;100.00;100808.55;1718890;81;20993;-81
2022/08/29 04:55:21;;;;;;;7.60;4.15;;;;;;;14.33;100.00;100809.59;1730300;81;21012;-81
2022/08/29 04:57:50;;;;;;;12.58;5.08;;;;;;;14.30;100.00;100809.30;1746230;81;21064;-82
2022/08/29 05:00:22;;;;;;;8.88;4.35;;;;;;;14.29;100.00;100813.70;1770474;79;21101;-81
2022/08/29 05:02:48;;;;;;;6.40;4.17;;;;;;;14.29;100.00;100814.17;1734363;79;21100;-90
2022/08/29 05:05:17;;;;;;;8.25;4.05;;;;;;;14.29;100.00;100816.33;1744720;81;21059;-82
2022/08/29 05:07:45;;;;;;;9.93;4.92;;;;;;;14.31;100.00;100816.28;1771084;80;21047;-85
2022/08/29 05:10:17;;;;;;;5.47;3.92;;;;;;;14.33;100.00;100825.42;1744664;81;21005;-82
2022/08/29 05:12:45;;;;;;;7.72;3.90;;;;;;;14.32;100.00;100823.72;1756444;81;21056;-82
2022/08/29 05:15:14;;;;;;;12.95;4.33;;;;;;;14.32;100.00;100821.94;1754652;80;21022;-90
2022/08/29 05:17:42;;;;;;;5.47;3.45;;;;;;;14.32;100.00;100817.98;1769211;81;21290;-85
2022/08/29 05:20:11;;;;;;;8.53;4.30;;;;;;;14.34;100.00;100817.92;1769135;79;21099;-82
2022/08/29 05:22:40;;;;;;;8.90;4.33;;;;;;;14.37;100.00;100822.58;1760529;80;21006;-87
2022/08/29 05:25:11;;;;;;;8.70;4.20;;;;;;;14.40;100.00;100830.35;1771516;80;21118;-87
2022/08/29 05:27:40;;;;;;;8.33;4.10;;;;;;;14.43;100.00;100834.16;1764165;79;21023;-82
2022/08/29 05:30:08;;;;;;;8.63;4.53;;;;;;;14.46;100.00;100837.13;1756730;80;21090;-91
2022/08/29 05:32:35;;;;;;;7.47;4.05;;;;;;;14.51;100.00;100836.45;1761404;80;21058;-91
2022/08/29 05:35:02;;;;;;;10.88;4.67;;;;;;;14.56;100.00;100841.09;1756761;79;21524;-89
2022/08/29 05:37:30;;;;;;;9.90;4.30;;;;;;;14.57;100.00;100838.83;1741681;79;21072;-81
2022/08/29 05:39:58;;;;;;;7.12;3.80;;;;;;;14.60;100.00;100833.41;1769281;80;21090;-81
2022/08/29 05:42:26;;;;;;;9.33;4.42;;;;;;;14.62;100.00;100838.16;1744530;81;21058;-82
2022/08/29 05:44:54;;;;;;;7.30;4.12;;;;;;;14.64;100.00;100836.31;1743432;79;20987;-81
2022/08/29 05:47:22;;;;;;;8.98;4.60;;;;;;;14.65;100.00;100844.60;1776010;80;21015;-83
2022/08/29 05:49:50;;;;;;;8.75;4.05;;;;;;;14.67;100.00;100847.19;1767047;80;21735;-81
2022/08/29 05:52:21;;;;;;;7.70;4.35;;;;;;;14.70;100.00;100851.00;1776822;80;21082;-82
2022/08/29 05:54:49;;;;;;;9.55;3.90;;;;;;;14.71;100.00;100844.34;1754922;79;21018;-81
2022/08/29 05:57:21;;;;;;;10.13;4.60;;;;;;;14.74;100.00;100847.27;1759975;79;21106;-84
2022/08/29 05:59:51;;;;;;;11.35;4.00;;;;;;;14.76;100.00;100852.48;1766682;79;21564;-81
2022/08/29 06:02:20;;;;;;;8.73;4.58;;;;;;;14.76;100.00;100853.34;1743454;79;21044;-81
2022/08/29 06:04:49;;;;;;;7.92;4.12;;;;;;;14.81;100.00;100863.22;1741827;79;21254;-81
2022/08/29 06:07:16;;;;;;;9.13;4.37;;;;;;;14.82;100.00;100856.15;1776824;80;21438;-82
2022/08/29 06:09:44;;;;;;;9.93;4.60;;;;;;;14.84;100.00;100859.11;1757074;79;21097;-80
2022/08/29 06:12:14;;;;;;;7.70;4.28;;;;;;;14.89;100.00;100865.50;1771002;79;21054;-80
2022/08/29 06:14:41;;;;;;;8.48;4.50;;;;;;;14.92;100.00;100868.84;1771664;80;21147;-79
2022/08/29 06:17:08;;;;;;;14.15;4.33;;;;;;;14.98;100.00;100865.05;1766082;80;21014;-82
2022/08/29 06:19:38;;;;;;;9.30;4.20;;;;;;;14.98;100.00;100865.05;1768692;80;21014;-81
2022/08/29 06:22:08;;;;;;;11.33;4.75;;;;;;;15.07;100.00;100869.03;1764359;79;21042;-80
2022/08/29 06:24:36;;;;;;;9.50;4.00;;;;;;;15.07;100.00;100869.03;1764352;80;21042;-80
2022/08/29 06:27:03;;;;;;;8.33;4.10;;;;;;;15.13;100.00;100875.33;1764719;79;21168;-80
2022/08/29 06:29:30;;;;;;;10.53;4.62;;;;;;;15.14;100.00;100876.59;1767590;80;21029;-79
2022/08/29 06:31:58;;;;;;;7.42;4.12;;;;;;;15.17;100.00;100879.08;1770590;79;21020;-80
2022/08/29 06:34:25;;;;;;;12.65;4.70;;;;;;;15.21;100.00;100879.77;1767936;79;21037;-81
2022/08/29 06:36:52;;;;;;;8.43;4.22;;;;;;;15.24;100.00;100886.69;1763762;80;21046;-80
2022/08/29 06:39:19;;;;;;;11.25;5.20;;;;;;;15.28;100.00;100885.16;1771636;79;21176;-79
2022/08/29 06:41:47;;;;;;;7.67;3.98;;;;;;;15.28;100.00;100881.20;1769825;80;21039;-82
2022/08/29 06:44:15;;;;;;;7.62;3.77;;;;;;;15.35;100.00;100889.22;1766223;79;21003;-81
2022/08/29 06:46:48;;;;;;;8.68;3.95;;;;;;;15.39;100.00;100889.45;1764918;80;21043;-81
2022/08/29 06:49:19;;;;;;;7.05;4.10;;;;;;;15.45;100.00;100888.77;1764217;80;21046;-81
2022/08/29 06:51:49;;;;;;;10.08;4.00;;;;;;;15.51;100.00;100896.38;1764397;80;21099;-80
2022/08/29 06:54:16;;;;;;;;;;;;;;;15.55;100.00;100900.12;1766489;80;21011;-79
2022/08/29 06:56:44;;;;;;;8.35;3.55;;;;;;;15.62;100.00;100900.66;1765227;81;20434;-80
2022/08/29 06:59:11;;;;;;;9.60;3.47;;;;;;;15.70;100.00;100902.48;1765095;80;21039;-82
2022/08/29 07:01:41;;;;;;;7.78;3.37;;;;;;;15.70;100.00;100902.48;1763244;81;21023;-81
2022/08/29 07:04:09;;;;;;;8.68;3.50;;;;;;;15.76;100.00;100906.13;1765935;81;21086;-83
2022/08/29 07:06:37;;;;;;;9.70;3.35;;;;;;;15.81;100.00;100897.50;1762496;81;21614;-77
2022/08/29 07:09:05;;;;;;;7.97;3.65;;;;;;;15.89;100.00;100896.27;1765291;81;21070;-77
2022/08/29 07:11:33;;;;;;;9.93;3.40;;;;;;;16.02;100.00;100899.53;1762889;80;21035;-78
2022/08/29 07:14:03;;;;;;;8.08;3.72;;;;;;;16.02;100.00;100899.53;1767640;81;21031;-78
2022/08/29 07:16:32;;;;;;;8.98;3.85;;;;;;;16.08;99.94;100904.97;1764987;80;21750;-84
2022/08/29 07:19:04;;;;;;;12.00;3.70;;;;;;;16.15;99.85;100902.84;1759039;81;21042;-85
2022/08/29 07:21:37;;;;;;;9.73;3.27;;;;;;;16.20;100.00;100901.67;1763154;80;21012;-80
2022/08/29 07:24:07;;;;;;;9.83;3.87;;;;;;;16.30;100.00;100901.20;1768094;80;21016;-80
2022/08/29 07:26:43;;;;;;;11.43;3.20;;;;;;;16.38;99.74;100909.56;1755092;81;21011;-79
2022/08/29 07:29:16;;;;;;;7.72;3.35;;;;;;;16.43;99.36;100907.09;1766830;81;22086;-79
2022/08/29 07:31:44;;;;;;;8.45;3.75;;;;;;;16.49;99.13;100921.78;1763201;81;21023;-79
2022/08/29 07:34:11;;;;;;;8.98;3.50;;;;;;;16.56;99.07;100909.06;1762554;80;21000;-78
2022/08/29 07:36:39;;;;;;;8.65;3.25;;;;;;;16.61;98.75;100912.32;1766475;80;20984;-79
2022/08/29 07:39:13;;;;;;;8.25;3.30;;;;;;;16.65;98.55;100910.72;1767424;80;20984;-78
2022/08/29 07:41:43;;;;;;;13.50;3.40;;;;;;;16.73;98.46;100916.45;1765802;80;21089;-78
2022/08/29 07:44:12;;;;;;;11.35;3.67;;;;;;;16.79;98.23;100924.56;1762682;81;21008;-78
2022/08/29 07:46:40;;;;;;;8.83;3.53;;;;;;;16.85;97.91;100914.98;1770885;80;21070;-79
2022/08/29 07:49:07;;;;;;;10.35;3.10;;;;;;;16.90;98.06;100914.27;1762020;80;21031;-79
2022/08/29 07:51:35;;;;;;;10.28;2.92;;;;;;;16.97;97.75;100916.09;1764634;80;21068;-80
2022/08/29 07:54:03;;;;;;;11.35;3.27;;;;;;;17.02;97.64;100914.05;1768574;80;21890;-80
2022/08/29 07:56:35;;;;;;;8.25;3.05;;;;;;;17.08;97.32;100915.03;1773436;80;22155;-83
2022/08/29 07:59:02;;;;;;;8.88;2.87;;;;;;;17.15;97.36;100912.88;1761754;80;21007;-80
2022/08/29 08:01:29;;;;;;;10.10;3.27;;;;;;;17.23;97.42;100920.40;1769162;80;21034;-80
2022/08/29 08:03:57;;;;;;;9.33;3.40;;;;;;;17.29;97.22;100922.25;1767671;80;21079;-80
2022/08/29 08:06:25;;;;;;;9.68;3.27;;;;;;;17.35;96.95;100924.55;1773671;80;21107;-80
2022/08/29 08:08:53;;;;;;;10.38;3.35;;;;;;;17.43;97.10;100922.79;1770704;80;21022;-80
2022/08/29 08:11:22;;;;;;;8.48;3.40;;;;;;;17.52;97.10;100927.55;1775916;80;21507;-80
2022/08/29 08:13:50;;;;;;;10.58;3.87;;;;;;;17.61;96.65;100923.51;1743109;80;21042;-80
2022/08/29 08:16:20;;;;;;;8.98;3.30;;;;;;;17.70;96.60;100923.44;1773775;80;21093;-79
2022/08/29 08:18:48;;;;;;;7.37;3.35;;;;;;;17.76;96.09;100923.07;1769465;80;21061;-79
2022/08/29 08:21:15;;;;;;;9.03;3.42;;;;;;;17.79;95.60;100924.25;1770047;80;21116;-80
2022/08/29 08:23:43;;;;;;;8.93;3.30;;;;;;;17.83;95.46;100921.34;1773699;80;21523;-79
2022/08/29 08:26:12;;;;;;;10.13;3.55;;;;;;;17.91;95.57;100925.34;1770446;80;21030;-80
2022/08/29 08:28:41;;;;;;;9.53;3.52;;;;;;;17.99;95.93;100933.22;1771898;80;21215;-80
2022/08/29 08:31:11;;;;;;;6.83;3.17;;;;;;;18.05;95.03;100934.66;1774904;80;21358;-83
2022/08/29 08:33:39;;;;;;;8.48;3.40;;;;;;;18.10;94.88;100929.09;1775333;80;20999;-88
2022/08/29 08:36:28;;;;;;;9.20;3.30;;;;;;;18.18;94.97;100922.81;1773358;80;21011;-83
2022/08/29 08:38:56;;;;;;;9.43;3.35;;;;;;;18.23;94.73;100928.22;1773777;80;21573;-84
2022/08/29 08:42:13;;;;;;;10.10;3.55;;;;;;;18.30;94.38;100934.51;1768610;80;21049;-83
2022/08/29 08:45:14;;;;;;;6.92;3.00;;;;;;;18.35;94.26;100931.11;1767636;80;21959;-84
2022/08/29 08:48:09;;;;;;;9.80;3.02;;;;;;;18.42;93.89;100933.75;1768781;80;21517;-88
2022/08/29 08:50:53;;;;;;;10.08;3.83;;;;;;;18.52;93.94;100932.72;1767873;81;21051;-83
2022/08/29 08:53:38;;;;;;;9.28;3.67;;;;;;;18.59;93.47;100932.22;1741633;80;21032;-81
2022/08/29 08:56:13;;;;;;;7.83;2.67;;;;;;;18.65;93.20;100933.20;1739468;81;21071;-81
2022/08/29 08:58:54;;;;;;;9.70;3.17;;;;;;;18.72;92.97;100925.69;1731460;81;21219;-81
2022/08/29 09:01:38;;;;;;;8.55;3.10;;;;;;;18.77;92.79;100930.27;1736985;81;21065;-81
2022/08/29 09:04:32;;;;;;;6.67;3.02;;;;;;;18.86;92.58;100934.14;1754114;81;21019;-81
2022/08/29 09:07:21;;;;;;;8.25;3.25;;;;;;;18.90;92.18;100931.20;1762194;81;22054;-81
2022/08/29 09:10:14;;;;;;;9.73;3.40;;;;;;;19.05;92.72;100935.16;1739340;81;21003;-81
2022/08/29 09:13:10;;;;;;;6.42;3.05;;;;;;;19.13;91.78;100937.70;1737902;81;22042;-81
2022/08/29 09:15:47;;;;;;;8.83;3.00;;;;;;;19.13;91.04;100938.19;1745607;80;21031;-81
2022/08/29 09:18:29;;;;;;;10.98;3.47;;;;;;;19.22;91.73;100940.23;1749740;80;21122;-81
2022/08/29 09:20:58;;;;;;;9.50;3.30;;;;;;;19.37;91.81;100937.92;1739370;81;21031;-81
2022/08/29 09:23:42;;;;;;;10.88;3.17;;;;;;;19.51;91.44;100934.36;1739465;81;21098;-81
2022/08/29 09:26:09;;;;;;;9.43;3.00;;;;;;;19.57;90.59;100933.95;1739320;81;21125;-81
2022/08/29 09:28:37;;;;;;;9.88;3.12;;;;;;;19.64;90.22;100941.52;1744426;81;20922;-81
2022/08/29 09:31:24;;;;;;;7.92;3.25;;;;;;;19.68;89.69;100934.60;1745982;80;21531;-82
2022/08/29 09:33:59;;;;;;;13.08;3.60;;;;;;;19.76;89.59;100932.73;1741264;80;21070;-82
2022/08/29 09:36:48;;;;;;;7.40;2.90;;;;;;;19.85;89.55;100931.30;1740340;81;20979;-81
2022/08/29 09:39:31;;;;;;;8.70;2.90;;;;;;;19.98;89.00;100937.46;1733167;81;21923;-83
2022/08/29 09:42:13;;;;;;;16.77;2.80;;;;;;;20.14;89.16;100943.45;1727321;81;20987;-82
2022/08/29 09:44:43;;;;;;;9.65;3.60;;;;;;;20.10;87.36;100951.28;1743001;81;21030;-82
2022/08/29 09:47:22;;;;;;;7.50;3.12;;;;;;;20.01;86.63;100947.44;1740514;79;20989;-83
2022/08/29 09:50:23;;;;;;;9.10;3.20;;;;;;;20.04;86.67;100942.39;1747149;80;21091;-81
2022/08/29 09:52:59;;;;;;;10.45;3.45;;;;;;;20.12;86.33;100939.19;1749651;80;21469;-87
2022/08/29 09:55:45;;;;;;;9.13;3.67;;;;;;;20.17;85.89;100939.73;1739516;80;20985;-82
2022/08/29 09:58:21;;;;;;;6.87;3.10;;;;;;;20.17;85.64;100937.91;1763059;80;20935;-90
2022/08/29 10:01:08;;;;;;;7.58;2.70;;;;;;;20.34;85.89;100938.56;1765190;80;21022;-90
2022/08/29 10:03:44;;;;;;;8.68;2.90;;;;;;;20.34;85.34;100946.55;1768637;80;20979;-79
2022/08/29 10:06:21;;;;;;;6.00;2.77;;;;;;;20.41;85.14;100940.70;1760196;80;21112;-79
2022/08/29 10:09:12;;;;;;;7.15;3.10;;;;;;;20.62;85.32;100935.72;1729061;80;22287;-82
2022/08/29 10:12:00;;;;;;;6.80;2.70;;;;;;;20.83;84.47;100933.81;1696664;82;21480;-79
2022/08/29 10:14:41;;;;;;;9.43;3.40;;;;;;;21.15;84.96;100936.34;1698654;82;21062;-78
2022/08/29 10:20:30;;;;;;;8.30;3.25;;;;;;;21.91;84.93;100931.61;1691526;83;21392;-79
2022/08/29 10:23:05;;;;;;;6.75;3.37;;;;;;;22.21;83.84;100942.27;1654618;85;21032;-80
2022/08/29 10:25:39;;;;;;;8.93;3.50;;;;;;;22.40;83.38;100946.55;1635185;85;21064;-83
2022/08/29 10:28:41;;;;;;;7.50;3.22;;;;;;;22.58;82.42;100946.06;1649024;85;21073;-81
2022/08/29 10:31:26;;;;;;;10.78;3.70;;;;;;;22.54;81.23;100944.63;1628667;85;21088;-82
2022/08/29 10:34:05;;;;;;;9.18;3.45;;;;;;;22.36;80.07;100937.55;1641390;85;22056;-84
2022/08/29 10:36:39;;;;;;;9.10;3.55;;;;;;;22.26;79.75;100936.09;1649129;85;21570;-82
2022/08/29 10:39:42;;;;;;;8.25;3.00;;;;;;;22.25;79.52;100937.05;1626615;87;21752;-85
2022/08/29 10:42:21;;;;;;;8.13;3.52;;;;;;;22.30;79.36;100934.03;1617272;86;21217;-81
2022/08/29 10:45:08;;;;;;;14.77;3.50;;;;;;;22.55;79.38;100937.81;1623619;87;21503;-81
2022/08/29 10:47:48;;;;;;;7.60;3.33;;;;;;;22.81;78.88;100938.89;1661132;84;21940;-80
2022/08/29 10:50:40;;;;;;;8.70;3.30;;;;;;;22.85;78.20;100936.35;1705962;81;20999;-81
2022/08/29 10:53:28;;;;;;;6.03;2.83;;;;;;;22.69;77.48;100928.20;1710590;83;21761;-80
2022/08/29 10:56:03;;;;;;;6.72;2.90;;;;;;;22.39;76.31;100936.84;1751960;80;21125;-79
2022/08/29 10:58:44;;;;;;;12.95;3.17;;;;;;;22.04;75.28;100935.05;1736862;80;20980;-82
2022/08/29 11:01:23;;;;;;;5.95;2.95;;;;;;;21.87;75.64;100934.65;1764882;80;21481;-80
2022/08/29 11:04:21;;;;;;;9.20;3.05;;;;;;;22.10;76.33;100928.38;1765747;80;21520;-79
2022/08/29 11:06:56;;;;;;;7.62;2.85;;;;;;;22.15;76.18;100926.70;1738260;80;21027;-80
2022/08/29 11:09:28;;;;;;;7.17;2.42;;;;;;;22.09;75.99;100928.03;1719573;80;20923;-78
2022/08/29 11:12:12;;;;;;;5.47;2.95;;;;;;;22.21;76.08;100930.27;1748278;80;21066;-80
2022/08/29 11:15:10;;;;;;;7.85;3.15;;;;;;;22.59;76.73;100925.08;1744029;80;21953;-82
2022/08/29 11:17:41;;;;;;;8.98;3.42;;;;;;;22.77;76.51;100926.76;1744372;80;21027;-83
2022/08/29 11:20:20;;;;;;;7.35;3.10;;;;;;;22.79;75.32;100929.67;1743625;80;21031;-82
2022/08/29 11:22:55;;;;;;;9.15;3.27;;;;;;;23.09;75.80;100926.39;1739576;80;21042;-79
2022/08/29 11:25:22;;;;;;;9.63;3.10;;;;;;;23.31;74.96;100931.32;1750369;80;21042;-81
2022/08/29 11:28:24;;;;;;;7.10;2.72;;;;;;;23.14;73.42;100931.34;1754725;80;21869;-81
2022/08/29 11:31:20;;;;;;;7.22;3.25;;;;;;;23.17;73.34;100929.78;1751302;80;21082;-80
2022/08/29 11:34:16;;;;;;;4.08;2.35;;;;;;;23.55;73.55;100933.77;1764024;79;21042;-80
2022/08/29 11:37:06;;;;;;;7.05;2.92;;;;;;;23.68;72.72;100921.07;1765200;80;21498;-85
2022/08/29 11:40:04;;;;;;;7.58;2.47;;;;;;;23.62;72.29;100926.94;1738164;82;21073;-83
2022/08/29 11:42:37;;;;;;;7.25;2.70;;;;;;;23.93;72.42;100933.27;1756435;79;21139;-80
2022/08/29 11:45:09;;;;;;;6.90;2.85;;;;;;;24.19;71.55;100928.84;1753945;80;21462;-84